• Join FlightAware (Why Join?)
  • Login
  • US Flag 
05:11PM EDT


 

Airport Tracker/Info


-or-


 

Live Flight TrackerFlight Track Log ✈ GGN7280 ✈ 28-Jun-2013 ✈ CYYZ - KALB

Flight Track Log - Related Links

Times and Time Zones

All times are in EDT time to prevent confusion due to time zone crossing. See the GGN7280 flight status page for this flight to view local times or setup timezone preferences in your user account.

Time Position Orientation Groundspeed Altitude Reporting Facility
EDT Latitude Longitude Course Direction KTS MPH feet Rate Location/Type
09:41AM 43.6500 -79.6167 360° North 20 23 600  Level Toronto Center
09:42AM 43.6500 -79.6167 77° East 10 12 600 780 Level Toronto Center
09:44AM 43.6667 -79.5167 77° East 170 196 2,500 1,620 Climbing Toronto Center
09:45AM 43.6500 -79.4667 115° Southeast 170 196 4,500 1,260 Climbing Toronto Center
09:46AM 43.6167 -79.4000 125° Southeast 200 230 5,100 720 Climbing Toronto Center
09:47AM 43.6000 -79.3333 109° East 230 265 6,000 1,200 Climbing Toronto Center
09:48AM 43.5667 -79.2500 119° Southeast 220 253 7,600 1,500 Climbing Toronto Center
09:49AM 43.5333 -79.2000 133° Southeast 190 219 9,000 900 Climbing Toronto Center
09:50AM 43.5167 -79.1333 109° East 220 253 9,400 960 Climbing Toronto Center
09:51AM 43.4833 -79.0333 115° Southeast 210 242 11,000 840 Climbing Toronto Center
09:52AM 43.4500 -78.9667 125° Southeast 240 276 11,100  Climbing Toronto Center
09:53AM 43.4167 -78.8833 119° Southeast 260 299 11,000 360 Descending Toronto Center
09:54AM 43.3667 -78.8000 130° Southeast 260 299 11,900 900 Climbing Toronto Center
09:54AM 43.3483 -78.7647 126° Southeast 257 296 12,600 600 Climbing Cleveland Center
09:55AM 43.3117 -78.6889 124° Southeast 257 296 13,000 180 Climbing Cleveland Center
09:56AM 43.2686 -78.6017 124° Southeast 263 303 13,000  Level Cleveland Center
09:57AM 43.2319 -78.5375 128° Southeast 263 303 13,100 420 Climbing Cleveland Center
09:58AM 43.1864 -78.4364 122° Southeast 263 303 13,900 1,320 Climbing Cleveland Center
09:59AM 43.1497 -78.3694 127° Southeast 245 282 15,800 1,740 Climbing Cleveland Center
10:00AM 43.1172 -78.3050 125° Southeast 222 255 17,400 1,500 Climbing Cleveland Center
10:01AM 43.0844 -78.2353 123° Southeast 217 250 18,900 1,380 Climbing Cleveland Center
10:02AM 43.0519 -78.1653 122° Southeast 217 250 20,200 1,200 Climbing Cleveland Center
10:03AM 43.0192 -78.0986 124° Southeast 212 244 21,400 1,080 Climbing Cleveland Center
10:04AM 42.9864 -78.0344 125° Southeast 212 244 22,400 900 Climbing Cleveland Center
10:05AM 42.9558 -77.9650 121° Southeast 212 244 23,300 900 Climbing Cleveland Center
10:06AM 42.9189 -77.9011 128° Southeast 212 244 24,200 720 Climbing Cleveland Center
10:07AM 42.9086 -77.8194 100° East 211 243 24,800 360 Climbing Cleveland Center
10:08AM 42.9106 -77.7286 88° East 216 249 25,000 60 Climbing Cleveland Center
10:09AM 42.9081 -77.6294 92° East 230 265 25,000  Level Cleveland Center
10:10AM 42.9033 -77.5275 94° East 253 291 25,000  Level Cleveland Center
10:11AM 42.9008 -77.4286 92° East 258 297 25,000  Level Cleveland Center
10:12AM 42.9000 -77.3294 91° East 258 297 25,000 -60 Level Cleveland Center
10:14AM 42.8950 -77.1456 92° East 254 292 24,900 -60 Descending Boston Center
10:15AM 42.8928 -77.0461 92° East 259 298 24,900  Level Boston Center
10:16AM 42.8883 -76.9494 94° East 259 298 25,000  Climbing Boston Center
10:17AM 42.8861 -76.8472 92° East 254 292 25,000  Level Boston Center
10:18AM 42.8864 -76.7311 90° East 254 292 25,000  Level Boston Center
10:19AM 42.8797 -76.6314 95° East 254 292 25,000  Level Boston Center
10:20AM 42.8769 -76.5347 92° East 254 292 25,000  Level Boston Center
10:21AM 42.8722 -76.4353 94° East 259 298 25,000  Level Boston Center
10:22AM 42.8694 -76.3331 92° East 259 298 25,000 -60 Level Boston Center
10:23AM 42.8667 -76.2336 92° East 259 298 24,900 -60 Descending Boston Center
10:24AM 42.8614 -76.1342 94° East 259 298 24,900  Level Boston Center
10:25AM 42.8567 -76.0289 93° East 259 298 25,000  Climbing Boston Center
10:26AM 42.8553 -75.9356 91° East 264 304 25,000  Level Boston Center
10:27AM 42.8519 -75.8361 93° East 257 296 25,000  Level Boston Center
10:28AM 42.8425 -75.7364 97° East 257 296 25,000 -60 Level Boston Center
10:29AM 42.8408 -75.6428 91° East 262 302 24,900 -180 Descending Boston Center
10:30AM 42.8375 -75.5408 93° East 262 302 24,700 -600 Descending Boston Center
10:31AM 42.8342 -75.4331 92° East 273 314 23,800 -1,020 Descending Boston Center
10:32AM 42.8306 -75.3281 93° East 278 320 22,700 -1,260 Descending Boston Center
10:34AM 42.8217 -75.1889 95° East 292 336 21,100 -1,260 Descending Boston Center
10:35AM 42.8117 -75.0808 97° East 292 336 20,000 -1,260 Descending Boston Center
10:36AM 42.8119 -74.9706 90° East 292 336 18,600 -1,560 Descending Boston Center
10:37AM 42.8061 -74.8569 94° East 292 336 16,900 -1,560 Descending Boston Center
10:38AM 42.8169 -74.7328 83° East 287 330 15,500 -1,500 Descending Boston Center
10:39AM 42.8378 -74.6344 74° East 298 343 13,900 -1,980 Descending Boston Center
10:40AM 42.8628 -74.5219 73° East 298 343 11,600 -1,920 Descending Boston Center
10:41AM 42.8706 -74.4458 82° East 270 311 10,100 -1,800 Descending Boston Center
10:42AM 42.8786 -74.3328 84° East 253 291 8,100 -1,620 Descending Boston Center
10:43AM 42.8861 -74.2481 83° East 253 291 6,900 -1,320 Descending Boston Center
10:44AM 42.8942 -74.1433 84° East 253 291 5,500 -1,380 Descending Boston Center
10:45AM 42.9017 -74.0586 83° East 253 291 4,200 -1,260 Descending Boston Center
10:46AM 42.9133 -73.9567 81° East 253 291 3,000 -600 Descending Boston Center
10:47AM 42.9186 -73.8803 85° East 232 267 3,000  Level Boston Center
10:48AM 42.9006 -73.8092 109° East 190 219 3,000 -360 Level Boston Center
10:49AM 42.8569 -73.7997 171° South 144 166 2,300 -840 Descending Boston Center
10:50AM 42.8006 -73.8097 187° South 157 181 1,200 -840 Descending Boston Center
10:51AM 42.7631 -73.8089 179° South 134 154 500 -720 Descending Boston Center